createdAt,value
2022-08-07T00:01:12.548Z,2.80
2022-08-07T00:04:33.160Z,2.20
2022-08-07T00:07:44.113Z,2.35
2022-08-07T00:10:57.538Z,2.80
2022-08-07T00:14:05.919Z,2.15
2022-08-07T00:17:16.278Z,2.70
2022-08-07T00:20:29.928Z,2.50
2022-08-07T00:23:43.096Z,2.10
2022-08-07T00:27:06.380Z,2.67
2022-08-07T00:30:26.633Z,2.50
2022-08-07T00:33:35.183Z,2.45
2022-08-07T00:36:46.413Z,2.80
2022-08-07T00:39:55.058Z,3.17
2022-08-07T00:43:02.660Z,3.23
2022-08-07T00:46:10.683Z,3.05
2022-08-07T00:49:24.882Z,2.70
2022-08-07T00:52:47.382Z,2.75
2022-08-07T00:56:02.272Z,2.85
2022-08-07T00:59:11.718Z,3.40
2022-08-07T01:02:29.345Z,3.05
2022-08-07T01:05:53.643Z,3.20
2022-08-07T01:09:02.792Z,2.70
2022-08-07T01:12:30.091Z,2.72
2022-08-07T01:16:00.977Z,2.30
2022-08-07T01:19:18.525Z,2.85
2022-08-07T01:22:29.213Z,3.20
2022-08-07T01:25:55.835Z,2.83
2022-08-07T01:29:04.750Z,3.53
2022-08-07T01:32:13.754Z,2.90
2022-08-07T01:35:24.719Z,2.90
2022-08-07T01:38:45.665Z,3.13
2022-08-07T01:42:36.903Z,2.93
2022-08-07T03:04:29.538Z,3.30
2022-08-07T03:08:05.421Z,3.17
2022-08-07T03:11:12.442Z,3.20
2022-08-07T03:14:24.849Z,3.50
2022-08-07T03:17:36.275Z,3.20
2022-08-07T03:21:08.505Z,3.10
2022-08-07T03:24:27.288Z,3.25
2022-08-07T03:27:58.780Z,3.20
2022-08-07T03:31:24.697Z,3.53
2022-08-07T03:35:01.018Z,3.13
2022-08-07T03:38:29.831Z,3.20
2022-08-07T03:41:47.741Z,3.10
2022-08-07T03:45:01.386Z,3.13
2022-08-07T03:48:10.050Z,3.30
2022-08-07T03:51:20.773Z,3.10
2022-08-07T03:54:35.641Z,3.10
2022-08-07T03:58:32.941Z,3.20
2022-08-07T04:01:27.599Z,3.20
2022-08-07T04:04:38.663Z,3.30
2022-08-07T04:07:50.392Z,2.50
2022-08-07T04:12:20.741Z,3.25
2022-08-07T04:14:37.412Z,2.45
2022-08-07T04:18:58.033Z,2.75
2022-08-07T04:21:16.417Z,3.22
2022-08-07T04:24:30.715Z,2.72
2022-08-07T04:27:44.283Z,2.65
2022-08-07T04:30:58.668Z,2.80
2022-08-07T04:34:16.662Z,2.77
2022-08-07T04:37:25.182Z,2.75
2022-08-07T04:40:44.067Z,2.60
2022-08-07T04:44:13.260Z,2.70
2022-08-07T04:47:57.364Z,2.55
2022-08-07T04:51:14.125Z,2.60
2022-08-07T04:54:33.393Z,2.52
2022-08-07T04:58:10.523Z,2.30
2022-08-07T05:01:29.872Z,2.30
2022-08-07T05:04:58.261Z,2.43
2022-08-07T05:08:13.831Z,2.77
2022-08-07T05:11:56.863Z,2.80
2022-08-07T05:15:22.942Z,2.50
2022-08-07T05:18:41.510Z,2.33
2022-08-07T05:22:00.793Z,2.40
2022-08-07T05:25:26.114Z,2.20
2022-08-07T05:28:49.935Z,1.90
2022-08-07T05:32:00.818Z,2.08
2022-08-07T05:35:13.479Z,1.90
2022-08-07T05:39:00.058Z,1.90
2022-08-07T05:42:01.551Z,1.60
2022-08-07T05:45:26.169Z,1.80
2022-08-07T05:48:58.016Z,1.70
2022-08-07T05:52:08.539Z,1.90
2022-08-07T05:55:23.558Z,1.70
2022-08-07T05:58:52.830Z,1.77
2022-08-07T06:02:04.288Z,1.60
2022-08-07T06:05:16.116Z,1.90
2022-08-07T06:08:31.407Z,1.80
2022-08-07T06:11:40.727Z,2.22
2022-08-07T06:14:49.933Z,2.10
2022-08-07T06:22:15.600Z,2.20
2022-08-07T06:24:52.708Z,1.90
2022-08-07T06:28:10.051Z,2.20
2022-08-07T06:31:38.322Z,1.90
2022-08-07T06:34:49.218Z,1.72
2022-08-07T06:37:58.345Z,2.08
2022-08-07T06:41:12.990Z,2.20
2022-08-07T06:44:24.137Z,2.25
2022-08-07T06:47:38.622Z,1.67
2022-08-07T06:50:49.310Z,1.92
2022-08-07T06:55:27.765Z,1.87
2022-08-07T06:57:39.560Z,2.10
2022-08-07T07:00:59.002Z,2.53
2022-08-07T07:04:27.973Z,1.90
2022-08-07T07:07:59.148Z,2.03
2022-08-07T07:11:13.078Z,2.10
2022-08-07T07:14:23.625Z,2.10
2022-08-07T07:17:39.390Z,1.80
2022-08-07T07:20:57.911Z,2.10
2022-08-07T07:24:12.554Z,2.03
2022-08-07T07:27:26.061Z,2.05
2022-08-07T07:30:53.146Z,1.87
2022-08-07T07:34:06.135Z,1.70
2022-08-07T07:37:44.512Z,2.00
2022-08-07T07:40:46.042Z,1.80
2022-08-07T07:44:16.960Z,2.50
2022-08-07T07:47:27.014Z,1.80
2022-08-07T07:50:38.859Z,1.98
2022-08-07T07:53:51.759Z,2.35
2022-08-07T07:57:02.985Z,2.07
2022-08-07T08:00:20.991Z,1.92
2022-08-07T08:04:10.797Z,2.17
2022-08-07T08:07:08.799Z,2.00
2022-08-07T08:10:38.015Z,1.72
2022-08-07T08:13:54.402Z,1.80
2022-08-07T08:17:55.413Z,2.00
2022-08-07T08:20:36.822Z,2.17
2022-08-07T08:24:03.823Z,1.95
2022-08-07T08:27:16.610Z,1.95
2022-08-07T08:30:25.907Z,2.47
2022-08-07T08:33:35.429Z,1.98
2022-08-07T08:36:49.365Z,2.05
2022-08-07T08:40:16.324Z,2.13
2022-08-07T08:43:42.937Z,2.50
2022-08-07T08:47:07.670Z,2.02
2022-08-07T08:50:35.131Z,2.30
2022-08-07T08:53:53.966Z,2.37
2022-08-07T08:57:06.372Z,1.98
2022-08-07T09:00:16.877Z,2.30
2022-08-07T09:03:48.109Z,2.08
2022-08-07T09:07:04.050Z,1.50
2022-08-07T09:10:18.873Z,2.30
2022-08-07T09:13:39.654Z,2.20
2022-08-07T09:16:58.961Z,1.90
2022-08-07T09:20:35.547Z,2.00
2022-08-07T09:24:53.623Z,1.77
2022-08-07T09:27:59.779Z,1.82
2022-08-07T09:31:17.412Z,2.27
2022-08-07T09:34:31.033Z,1.98
2022-08-07T09:37:53.653Z,2.02
2022-08-07T09:41:07.553Z,2.10
2022-08-07T09:44:52.187Z,2.37
2022-08-07T09:48:12.251Z,2.30
2022-08-07T09:52:10.066Z,1.85
2022-08-07T09:55:29.601Z,1.80
2022-08-07T09:59:13.719Z,1.80
2022-08-07T10:02:39.048Z,1.72
2022-08-07T10:06:25.875Z,2.00
2022-08-07T10:10:02.604Z,1.90
2022-08-07T10:13:55.266Z,1.87
2022-08-07T10:17:16.700Z,1.98
2022-08-07T10:20:36.521Z,1.92
2022-08-07T10:24:08.568Z,1.60
2022-08-07T10:27:46.017Z,1.50
2022-08-07T10:31:11.344Z,1.70
2022-08-07T10:34:39.973Z,1.57
2022-08-07T10:38:20.827Z,1.82
2022-08-07T10:41:46.268Z,1.70
2022-08-07T10:45:04.138Z,1.87
2022-08-07T10:48:34.945Z,1.90
2022-08-07T10:52:02.027Z,1.60
2022-08-07T10:59:08.370Z,1.80
2022-08-07T11:02:32.752Z,1.90
2022-08-07T11:05:51.383Z,1.80
2022-08-07T11:09:04.526Z,1.75
2022-08-07T11:12:32.108Z,1.70
2022-08-07T11:15:42.530Z,1.63
2022-08-07T11:19:11.210Z,1.85
2022-08-07T11:22:37.246Z,2.05
2022-08-07T11:26:06.520Z,1.70
2022-08-07T11:29:42.131Z,1.77
2022-08-07T11:32:54.182Z,1.73
2022-08-07T11:36:25.218Z,1.52
2022-08-07T11:40:01.273Z,1.67
2022-08-07T11:43:16.741Z,1.80
2022-08-07T11:47:00.522Z,1.47
2022-08-07T11:50:32.226Z,1.67
2022-08-07T11:54:01.747Z,1.70
2022-08-07T11:57:59.886Z,1.60
2022-08-07T12:01:02.101Z,1.60
2022-08-07T12:04:26.989Z,1.45
2022-08-07T12:07:39.899Z,1.95
2022-08-07T12:11:08.393Z,1.80
2022-08-07T12:14:23.038Z,1.77
2022-08-07T12:17:58.926Z,1.98
2022-08-07T12:21:56.052Z,1.65
2022-08-07T12:26:00.929Z,1.72
2022-08-07T12:28:52.991Z,1.77
2022-08-07T12:32:12.400Z,1.72
2022-08-07T12:35:22.154Z,1.75
2022-08-07T12:38:42.554Z,1.57
2022-08-07T12:41:53.348Z,1.57
2022-08-07T12:45:04.299Z,1.93
2022-08-07T12:48:27.675Z,1.75
2022-08-07T12:51:51.490Z,1.57
2022-08-07T12:55:24.943Z,1.82
2022-08-07T12:58:56.900Z,1.77
2022-08-07T13:02:22.194Z,1.57
2022-08-07T13:06:02.521Z,2.10
2022-08-07T13:10:19.879Z,1.87
2022-08-07T13:12:58.216Z,1.87
2022-08-07T13:16:17.223Z,2.20
2022-08-07T13:19:46.261Z,1.70
2022-08-07T13:24:01.469Z,1.80
2022-08-07T13:26:46.173Z,2.20
2022-08-07T13:30:00.112Z,1.80
2022-08-07T13:34:30.139Z,1.87
2022-08-07T13:37:10.728Z,1.77
2022-08-07T13:40:36.667Z,1.77
2022-08-07T13:43:56.133Z,1.70
2022-08-07T13:47:09.565Z,1.80
2022-08-07T13:50:32.719Z,2.00
2022-08-07T13:54:00.635Z,1.60
2022-08-07T13:57:14.551Z,1.85
2022-08-07T14:00:54.021Z,1.63
2022-08-07T14:04:09.687Z,1.98
2022-08-07T14:07:17.839Z,1.60
2022-08-07T14:13:45.135Z,1.57
2022-08-07T14:17:00.158Z,1.60
2022-08-07T14:22:39.682Z,1.90
2022-08-07T14:24:05.389Z,1.45
2022-08-07T14:27:16.190Z,1.57
2022-08-07T14:30:52.222Z,1.80
2022-08-07T14:34:01.280Z,1.85
2022-08-07T14:37:17.884Z,1.87
2022-08-07T14:40:35.077Z,1.62
2022-08-07T14:43:58.983Z,1.80
2022-08-07T14:47:16.545Z,1.50
2022-08-07T14:50:26.241Z,1.72
2022-08-07T14:54:03.626Z,1.70
2022-08-07T15:00:44.647Z,1.77
2022-08-07T15:04:05.696Z,2.00
2022-08-07T15:10:58.646Z,1.70
2022-08-07T15:14:10.839Z,1.67
2022-08-07T15:17:28.446Z,2.10
2022-08-07T15:20:55.059Z,1.87
2022-08-07T15:25:13.907Z,1.60
2022-08-07T15:27:39.426Z,1.60
2022-08-07T15:31:09.315Z,1.62
2022-08-07T15:34:17.617Z,1.60
2022-08-07T15:38:01.306Z,1.63
2022-08-07T15:41:23.019Z,1.37
2022-08-07T15:44:30.185Z,1.40
2022-08-07T15:48:00.245Z,1.40
2022-08-07T15:51:11.952Z,1.80
2022-08-07T15:54:21.065Z,1.42
2022-08-07T15:57:39.994Z,1.70
2022-08-07T16:00:56.416Z,1.85
2022-08-07T16:04:14.683Z,1.60
2022-08-07T16:08:30.889Z,1.60
2022-08-07T16:11:03.576Z,1.60
2022-08-07T16:14:19.137Z,1.60
2022-08-07T16:18:02.917Z,1.82
2022-08-07T16:22:04.290Z,1.90
2022-08-07T16:24:52.862Z,1.70
2022-08-07T16:29:18.426Z,1.70
2022-08-07T16:32:00.631Z,1.67
2022-08-07T16:35:59.412Z,1.67
2022-08-07T16:39:16.657Z,1.40
2022-08-07T16:42:44.759Z,1.45
2022-08-07T16:47:04.433Z,1.82
2022-08-07T16:50:20.404Z,1.37
2022-08-07T16:54:12.231Z,1.77
2022-08-07T16:58:02.095Z,1.65
2022-08-07T17:01:34.407Z,1.60
2022-08-07T17:04:58.583Z,1.62
2022-08-07T17:08:09.249Z,1.52
2022-08-07T17:11:28.300Z,1.97
2022-08-07T17:15:04.225Z,2.00
2022-08-07T17:18:19.619Z,1.70
2022-08-07T17:21:50.914Z,1.82
2022-08-07T17:25:15.228Z,1.65
2022-08-07T17:28:35.637Z,1.60
2022-08-07T17:32:02.641Z,1.50
2022-08-07T17:35:50.502Z,1.57
2022-08-07T17:38:56.182Z,1.50
2022-08-07T17:42:08.765Z,1.62
2022-08-07T17:45:27.952Z,1.42
2022-08-07T17:48:46.374Z,1.98
2022-08-07T17:52:01.134Z,1.77
2022-08-07T17:55:54.076Z,1.50
2022-08-07T17:58:51.854Z,1.75
2022-08-07T18:02:08.795Z,1.70
2022-08-07T18:06:03.456Z,2.30
2022-08-07T18:09:05.718Z,1.92
2022-08-07T18:12:28.724Z,2.00
2022-08-07T18:15:53.479Z,2.30
2022-08-07T18:21:09.615Z,1.80
2022-08-07T18:22:45.737Z,3.33
2022-08-07T18:26:15.241Z,4.33
2022-08-07T18:30:06.642Z,5.83
2022-08-07T18:33:38.994Z,3.65
2022-08-07T18:38:57.523Z,1.92
2022-08-07T18:41:08.178Z,1.90
2022-08-07T18:44:45.966Z,1.70
2022-08-07T18:48:09.468Z,1.80
2022-08-07T18:52:34.673Z,1.60
2022-08-07T18:55:40.494Z,1.90
2022-08-07T18:59:01.130Z,1.77
2022-08-07T19:02:36.090Z,1.67
2022-08-07T19:06:03.718Z,1.55
2022-08-07T19:09:56.293Z,1.70
2022-08-07T19:12:58.260Z,2.30
2022-08-07T19:17:01.360Z,2.25
2022-08-07T19:20:04.525Z,2.47
2022-08-07T19:27:16.781Z,2.73
2022-08-07T19:30:57.947Z,2.13
2022-08-07T19:33:58.128Z,2.22
2022-08-07T19:37:17.565Z,2.20
2022-08-07T19:40:30.407Z,2.50
2022-08-07T19:43:52.137Z,2.50
2022-08-07T19:47:14.296Z,2.15
2022-08-07T19:50:43.940Z,2.20
2022-08-07T19:54:31.357Z,2.67
2022-08-07T19:58:02.926Z,2.30
2022-08-07T20:00:57.196Z,2.42
2022-08-07T20:04:08.357Z,2.17
2022-08-07T20:07:23.894Z,2.40
2022-08-07T20:10:54.693Z,2.52
2022-08-07T20:14:07.321Z,2.60
2022-08-07T20:17:22.653Z,2.42
2022-08-07T20:23:48.400Z,2.58
2022-08-07T20:27:04.244Z,2.67
2022-08-07T20:30:22.535Z,2.55
2022-08-07T20:33:36.924Z,2.72
2022-08-07T20:36:51.677Z,2.90
2022-08-07T20:40:05.381Z,2.57
2022-08-07T20:43:32.743Z,2.67
2022-08-07T20:46:43.816Z,2.70
2022-08-07T20:50:01.711Z,2.90
2022-08-07T20:53:17.215Z,2.80
2022-08-07T20:56:41.021Z,2.62
2022-08-07T21:00:06.283Z,2.85
2022-08-07T21:03:25.601Z,2.70
2022-08-07T21:06:35.456Z,2.65
2022-08-07T21:09:52.934Z,3.02
2022-08-07T21:13:15.478Z,2.55
2022-08-07T21:16:29.279Z,2.60
2022-08-07T21:19:51.730Z,2.60
2022-08-07T21:23:15.370Z,2.70
2022-08-07T21:26:42.912Z,2.70
2022-08-07T21:30:02.694Z,3.00
2022-08-07T21:33:21.692Z,2.98
2022-08-07T21:36:37.486Z,2.90
2022-08-07T21:39:56.538Z,2.65
2022-08-07T21:43:06.549Z,2.80
2022-08-07T21:46:25.210Z,2.77
2022-08-07T21:50:02.588Z,3.27
2022-08-07T21:53:17.582Z,2.60
2022-08-07T21:56:39.627Z,2.72
2022-08-07T22:00:03.972Z,2.67
2022-08-07T22:03:18.857Z,3.20
2022-08-07T22:06:56.615Z,2.67
2022-08-07T22:10:07.455Z,2.70
2022-08-07T22:13:24.262Z,2.70
2022-08-07T22:16:55.910Z,3.10
2022-08-07T22:20:22.617Z,2.80
2022-08-07T22:23:40.218Z,3.08
2022-08-07T22:27:00.201Z,2.70
2022-08-07T22:30:17.000Z,2.47
2022-08-07T22:33:53.117Z,2.60
2022-08-07T22:37:12.407Z,2.43
2022-08-07T22:40:28.087Z,2.72
2022-08-07T22:43:42.375Z,2.42
2022-08-07T22:47:16.846Z,2.45
2022-08-07T22:50:54.911Z,1.90
2022-08-07T22:54:16.226Z,2.37
2022-08-07T22:57:47.002Z,2.20
2022-08-07T23:01:15.464Z,2.47
2022-08-07T23:04:58.204Z,2.20
2022-08-07T23:08:46.180Z,2.27
2022-08-07T23:12:32.689Z,2.40
2022-08-07T23:16:05.433Z,2.60
2022-08-07T23:19:51.256Z,2.20
2022-08-07T23:24:05.888Z,2.02
2022-08-07T23:28:21.879Z,2.20
2022-08-07T23:32:49.146Z,2.20
2022-08-07T23:35:16.611Z,1.98
2022-08-07T23:38:54.564Z,2.22
2022-08-07T23:42:31.748Z,1.98
2022-08-07T23:49:49.975Z,1.90
2022-08-07T23:53:16.698Z,2.35
2022-08-07T23:56:35.144Z,2.00
